sensor_id;sensor_type;location;lat;lon;timestamp;temperature;humidity
63966;DHT22;50151;52.030;5.350;2023-07-29T00:01:11;18.00;99.90
63966;DHT22;50151;52.030;5.350;2023-07-29T00:03:38;17.90;99.90
63966;DHT22;50151;52.030;5.350;2023-07-29T00:06:05;17.90;99.90
63966;DHT22;50151;52.030;5.350;2023-07-29T00:08:32;17.90;99.90
63966;DHT22;50151;52.030;5.350;2023-07-29T00:10:58;17.80;99.90
63966;DHT22;50151;52.030;5.350;2023-07-29T00:13:25;17.80;99.90
63966;DHT22;50151;52.030;5.350;2023-07-29T00:15:54;17.80;99.90
63966;DHT22;50151;52.030;5.350;2023-07-29T00:18:22;17.80;99.90
63966;DHT22;50151;52.030;5.350;2023-07-29T00:20:49;17.80;99.90
63966;DHT22;50151;52.030;5.350;2023-07-29T00:23:17;17.80;99.90
63966;DHT22;50151;52.030;5.350;2023-07-29T00:25:45;17.80;99.90
63966;DHT22;50151;52.030;5.350;2023-07-29T00:28:12;17.80;99.90
63966;DHT22;50151;52.030;5.350;2023-07-29T00:30:39;17.80;99.90
63966;DHT22;50151;52.030;5.350;2023-07-29T00:33:06;17.60;99.90
63966;DHT22;50151;52.030;5.350;2023-07-29T00:35:33;17.70;99.90
63966;DHT22;50151;52.030;5.350;2023-07-29T00:37:59;17.70;99.90
63966;DHT22;50151;52.030;5.350;2023-07-29T00:40:28;17.80;99.90
63966;DHT22;50151;52.030;5.350;2023-07-29T00:42:55;17.80;99.90
63966;DHT22;50151;52.030;5.350;2023-07-29T00:45:23;17.80;99.90
63966;DHT22;50151;52.030;5.350;2023-07-29T00:47:51;17.80;99.90
63966;DHT22;50151;52.030;5.350;2023-07-29T00:50:18;17.80;99.90
63966;DHT22;50151;52.030;5.350;2023-07-29T00:52:45;17.80;99.90
63966;DHT22;50151;52.030;5.350;2023-07-29T00:55:12;17.80;99.90
63966;DHT22;50151;52.030;5.350;2023-07-29T00:57:39;17.70;99.90
63966;DHT22;50151;52.030;5.350;2023-07-29T01:00:07;17.70;99.90
63966;DHT22;50151;52.030;5.350;2023-07-29T01:02:35;17.60;99.90
63966;DHT22;50151;52.030;5.350;2023-07-29T01:05:02;17.60;99.90
63966;DHT22;50151;52.030;5.350;2023-07-29T01:07:33;17.60;99.90
63966;DHT22;50151;52.030;5.350;2023-07-29T01:10:04;17.60;99.90
63966;DHT22;50151;52.030;5.350;2023-07-29T01:12:48;17.60;99.90
63966;DHT22;50151;52.030;5.350;2023-07-29T01:15:26;17.50;99.90
63966;DHT22;50151;52.030;5.350;2023-07-29T01:18:09;17.50;99.90
63966;DHT22;50151;52.030;5.350;2023-07-29T01:20:40;17.50;99.90
63966;DHT22;50151;52.030;5.350;2023-07-29T01:23:06;17.50;99.90
63966;DHT22;50151;52.030;5.350;2023-07-29T01:25:33;17.40;99.90
63966;DHT22;50151;52.030;5.350;2023-07-29T01:28:00;17.40;99.90
63966;DHT22;50151;52.030;5.350;2023-07-29T01:30:31;17.40;99.90
63966;DHT22;50151;52.030;5.350;2023-07-29T01:33:21;17.40;99.90
63966;DHT22;50151;52.030;5.350;2023-07-29T01:35:52;17.40;99.90
63966;DHT22;50151;52.030;5.350;2023-07-29T01:38:27;17.40;99.90
63966;DHT22;50151;52.030;5.350;2023-07-29T01:40:56;17.40;99.90
63966;DHT22;50151;52.030;5.350;2023-07-29T01:43:23;17.40;99.90
63966;DHT22;50151;52.030;5.350;2023-07-29T01:45:52;17.40;99.90
63966;DHT22;50151;52.030;5.350;2023-07-29T01:48:19;17.30;99.90
63966;DHT22;50151;52.030;5.350;2023-07-29T01:50:45;17.30;99.90
63966;DHT22;50151;52.030;5.350;2023-07-29T01:53:12;17.30;99.90
63966;DHT22;50151;52.030;5.350;2023-07-29T01:55:40;17.30;99.90
63966;DHT22;50151;52.030;5.350;2023-07-29T01:58:07;17.30;99.90
63966;DHT22;50151;52.030;5.350;2023-07-29T02:00:33;17.30;99.90
63966;DHT22;50151;52.030;5.350;2023-07-29T02:03:00;17.20;99.90
63966;DHT22;50151;52.030;5.350;2023-07-29T02:05:27;17.20;99.90
63966;DHT22;50151;52.030;5.350;2023-07-29T02:07:54;17.20;99.90
63966;DHT22;50151;52.030;5.350;2023-07-29T02:10:20;17.20;99.90
63966;DHT22;50151;52.030;5.350;2023-07-29T02:12:47;17.20;99.90
63966;DHT22;50151;52.030;5.350;2023-07-29T02:15:13;17.10;99.90
63966;DHT22;50151;52.030;5.350;2023-07-29T02:17:41;17.10;99.90
63966;DHT22;50151;52.030;5.350;2023-07-29T02:20:09;17.20;99.90
63966;DHT22;50151;52.030;5.350;2023-07-29T02:22:37;17.20;99.90
63966;DHT22;50151;52.030;5.350;2023-07-29T02:25:04;17.20;99.90
63966;DHT22;50151;52.030;5.350;2023-07-29T02:27:31;17.20;99.90
63966;DHT22;50151;52.030;5.350;2023-07-29T02:29:58;17.10;99.90
63966;DHT22;50151;52.030;5.350;2023-07-29T02:32:25;17.20;99.90
63966;DHT22;50151;52.030;5.350;2023-07-29T02:34:52;17.10;99.90
63966;DHT22;50151;52.030;5.350;2023-07-29T02:37:19;17.10;99.90
63966;DHT22;50151;52.030;5.350;2023-07-29T02:39:46;17.10;99.90
63966;DHT22;50151;52.030;5.350;2023-07-29T02:42:13;17.10;99.90
63966;DHT22;50151;52.030;5.350;2023-07-29T02:44:40;17.10;99.90
63966;DHT22;50151;52.030;5.350;2023-07-29T02:47:07;17.10;99.90
63966;DHT22;50151;52.030;5.350;2023-07-29T02:49:33;17.10;99.90
63966;DHT22;50151;52.030;5.350;2023-07-29T02:52:00;17.10;99.90
63966;DHT22;50151;52.030;5.350;2023-07-29T02:54:27;17.10;99.90
63966;DHT22;50151;52.030;5.350;2023-07-29T02:56:54;17.10;99.90
63966;DHT22;50151;52.030;5.350;2023-07-29T02:59:20;17.10;99.90
63966;DHT22;50151;52.030;5.350;2023-07-29T03:01:47;17.20;99.90
63966;DHT22;50151;52.030;5.350;2023-07-29T03:04:14;17.10;99.90
63966;DHT22;50151;52.030;5.350;2023-07-29T03:06:40;17.10;99.90
63966;DHT22;50151;52.030;5.350;2023-07-29T03:09:07;17.10;99.90
63966;DHT22;50151;52.030;5.350;2023-07-29T03:11:34;17.10;99.90
63966;DHT22;50151;52.030;5.350;2023-07-29T03:14:00;17.10;99.90
63966;DHT22;50151;52.030;5.350;2023-07-29T03:16:28;17.00;99.90
63966;DHT22;50151;52.030;5.350;2023-07-29T03:18:55;17.00;99.90
63966;DHT22;50151;52.030;5.350;2023-07-29T03:21:21;17.00;99.90
63966;DHT22;50151;52.030;5.350;2023-07-29T03:23:48;17.00;99.90
63966;DHT22;50151;52.030;5.350;2023-07-29T03:26:15;17.00;99.90
63966;DHT22;50151;52.030;5.350;2023-07-29T03:28:42;17.00;99.90
63966;DHT22;50151;52.030;5.350;2023-07-29T03:31:10;16.90;99.90
63966;DHT22;50151;52.030;5.350;2023-07-29T03:33:37;17.00;99.90
63966;DHT22;50151;52.030;5.350;2023-07-29T03:36:04;16.90;99.90
63966;DHT22;50151;52.030;5.350;2023-07-29T03:38:31;16.90;99.90
63966;DHT22;50151;52.030;5.350;2023-07-29T03:40:59;16.90;99.90
63966;DHT22;50151;52.030;5.350;2023-07-29T03:43:26;16.90;99.90
63966;DHT22;50151;52.030;5.350;2023-07-29T03:45:52;16.90;99.90
63966;DHT22;50151;52.030;5.350;2023-07-29T03:48:19;16.90;99.90
63966;DHT22;50151;52.030;5.350;2023-07-29T03:50:46;16.90;99.90
63966;DHT22;50151;52.030;5.350;2023-07-29T03:53:13;16.90;99.90
63966;DHT22;50151;52.030;5.350;2023-07-29T03:55:39;16.90;99.90
63966;DHT22;50151;52.030;5.350;2023-07-29T03:58:06;16.90;99.90
63966;DHT22;50151;52.030;5.350;2023-07-29T04:00:33;16.90;99.90
63966;DHT22;50151;52.030;5.350;2023-07-29T04:03:00;16.90;99.90
63966;DHT22;50151;52.030;5.350;2023-07-29T04:05:27;16.90;99.90
63966;DHT22;50151;52.030;5.350;2023-07-29T04:07:54;16.90;99.90
63966;DHT22;50151;52.030;5.350;2023-07-29T04:10:20;16.80;99.90
63966;DHT22;50151;52.030;5.350;2023-07-29T04:12:47;16.90;99.90
63966;DHT22;50151;52.030;5.350;2023-07-29T04:15:14;16.90;99.90
63966;DHT22;50151;52.030;5.350;2023-07-29T04:17:41;16.90;99.90
63966;DHT22;50151;52.030;5.350;2023-07-29T04:20:08;16.90;99.90
63966;DHT22;50151;52.030;5.350;2023-07-29T04:22:35;16.90;99.90
63966;DHT22;50151;52.030;5.350;2023-07-29T04:25:01;16.90;99.90
63966;DHT22;50151;52.030;5.350;2023-07-29T04:27:31;16.90;99.90
63966;DHT22;50151;52.030;5.350;2023-07-29T04:29:57;16.80;99.90
63966;DHT22;50151;52.030;5.350;2023-07-29T04:32:24;16.80;99.90
63966;DHT22;50151;52.030;5.350;2023-07-29T04:34:52;16.80;99.90
63966;DHT22;50151;52.030;5.350;2023-07-29T04:37:19;16.80;99.90
63966;DHT22;50151;52.030;5.350;2023-07-29T04:39:45;16.90;99.90
63966;DHT22;50151;52.030;5.350;2023-07-29T04:42:13;16.90;99.90
63966;DHT22;50151;52.030;5.350;2023-07-29T04:44:39;16.80;99.90
63966;DHT22;50151;52.030;5.350;2023-07-29T04:47:08;16.80;99.90
63966;DHT22;50151;52.030;5.350;2023-07-29T04:49:35;16.80;99.90
63966;DHT22;50151;52.030;5.350;2023-07-29T04:52:01;16.80;99.90
63966;DHT22;50151;52.030;5.350;2023-07-29T04:54:28;16.80;99.90
63966;DHT22;50151;52.030;5.350;2023-07-29T04:56:55;16.80;99.90
63966;DHT22;50151;52.030;5.350;2023-07-29T04:59:21;16.80;99.90
63966;DHT22;50151;52.030;5.350;2023-07-29T05:01:48;16.90;99.90
63966;DHT22;50151;52.030;5.350;2023-07-29T05:04:16;16.80;99.90
63966;DHT22;50151;52.030;5.350;2023-07-29T05:06:43;16.80;99.90
63966;DHT22;50151;52.030;5.350;2023-07-29T05:09:14;16.90;99.90
63966;DHT22;50151;52.030;5.350;2023-07-29T05:11:42;16.80;99.90
63966;DHT22;50151;52.030;5.350;2023-07-29T05:14:13;16.80;99.90
63966;DHT22;50151;52.030;5.350;2023-07-29T05:16:40;16.80;99.90
63966;DHT22;50151;52.030;5.350;2023-07-29T05:19:06;16.90;99.90
63966;DHT22;50151;52.030;5.350;2023-07-29T05:21:33;16.90;99.90
63966;DHT22;50151;52.030;5.350;2023-07-29T05:24:00;16.90;99.90
63966;DHT22;50151;52.030;5.350;2023-07-29T05:26:27;17.00;99.90
63966;DHT22;50151;52.030;5.350;2023-07-29T05:28:54;17.00;99.90
63966;DHT22;50151;52.030;5.350;2023-07-29T05:31:21;17.00;99.90
63966;DHT22;50151;52.030;5.350;2023-07-29T05:33:48;17.10;99.90
63966;DHT22;50151;52.030;5.350;2023-07-29T05:36:15;17.10;99.90
63966;DHT22;50151;52.030;5.350;2023-07-29T05:38:41;17.10;99.90
63966;DHT22;50151;52.030;5.350;2023-07-29T05:41:08;17.20;99.90
63966;DHT22;50151;52.030;5.350;2023-07-29T05:43:35;17.20;99.90
63966;DHT22;50151;52.030;5.350;2023-07-29T05:46:02;17.20;99.90
63966;DHT22;50151;52.030;5.350;2023-07-29T05:48:28;17.30;99.90
63966;DHT22;50151;52.030;5.350;2023-07-29T05:50:55;17.30;99.90
63966;DHT22;50151;52.030;5.350;2023-07-29T05:53:22;17.40;99.90
63966;DHT22;50151;52.030;5.350;2023-07-29T05:55:48;17.40;99.90
63966;DHT22;50151;52.030;5.350;2023-07-29T05:58:16;17.50;99.90
63966;DHT22;50151;52.030;5.350;2023-07-29T06:00:42;17.40;99.90
63966;DHT22;50151;52.030;5.350;2023-07-29T06:03:09;17.50;99.90
63966;DHT22;50151;52.030;5.350;2023-07-29T06:05:36;17.60;99.90
63966;DHT22;50151;52.030;5.350;2023-07-29T06:08:03;17.60;99.90
63966;DHT22;50151;52.030;5.350;2023-07-29T06:10:30;17.70;99.90
63966;DHT22;50151;52.030;5.350;2023-07-29T06:12:57;17.70;99.90
63966;DHT22;50151;52.030;5.350;2023-07-29T06:15:24;17.70;99.90
63966;DHT22;50151;52.030;5.350;2023-07-29T06:17:50;17.80;99.90
63966;DHT22;50151;52.030;5.350;2023-07-29T06:20:19;17.80;99.90
63966;DHT22;50151;52.030;5.350;2023-07-29T06:22:46;17.80;99.90
63966;DHT22;50151;52.030;5.350;2023-07-29T06:25:12;18.00;99.90
63966;DHT22;50151;52.030;5.350;2023-07-29T06:27:39;18.00;99.90
63966;DHT22;50151;52.030;5.350;2023-07-29T06:30:06;18.00;99.90
63966;DHT22;50151;52.030;5.350;2023-07-29T06:32:34;18.00;99.90
63966;DHT22;50151;52.030;5.350;2023-07-29T06:35:01;18.10;99.90
63966;DHT22;50151;52.030;5.350;2023-07-29T06:37:27;18.20;99.90
63966;DHT22;50151;52.030;5.350;2023-07-29T06:39:54;18.30;99.90
63966;DHT22;50151;52.030;5.350;2023-07-29T06:42:21;18.30;99.90
63966;DHT22;50151;52.030;5.350;2023-07-29T06:44:47;18.30;99.90
63966;DHT22;50151;52.030;5.350;2023-07-29T06:47:14;18.30;99.90
63966;DHT22;50151;52.030;5.350;2023-07-29T06:49:41;18.30;99.90
63966;DHT22;50151;52.030;5.350;2023-07-29T06:52:08;18.40;99.90
63966;DHT22;50151;52.030;5.350;2023-07-29T06:54:34;18.50;99.90
63966;DHT22;50151;52.030;5.350;2023-07-29T06:57:01;18.60;99.90
63966;DHT22;50151;52.030;5.350;2023-07-29T06:59:28;18.60;99.90
63966;DHT22;50151;52.030;5.350;2023-07-29T07:01:54;18.60;99.90
63966;DHT22;50151;52.030;5.350;2023-07-29T07:04:21;18.50;99.90
63966;DHT22;50151;52.030;5.350;2023-07-29T07:06:48;18.30;99.90
63966;DHT22;50151;52.030;5.350;2023-07-29T07:09:15;18.30;99.90
63966;DHT22;50151;52.030;5.350;2023-07-29T07:11:41;18.30;99.90
63966;DHT22;50151;52.030;5.350;2023-07-29T07:14:08;18.40;99.90
63966;DHT22;50151;52.030;5.350;2023-07-29T07:16:35;18.40;99.90
63966;DHT22;50151;52.030;5.350;2023-07-29T07:19:04;18.50;99.90
63966;DHT22;50151;52.030;5.350;2023-07-29T07:21:31;18.50;99.90
63966;DHT22;50151;52.030;5.350;2023-07-29T07:23:59;18.50;99.90
63966;DHT22;50151;52.030;5.350;2023-07-29T07:26:25;18.60;99.90
63966;DHT22;50151;52.030;5.350;2023-07-29T07:28:52;18.60;99.90
63966;DHT22;50151;52.030;5.350;2023-07-29T07:31:19;18.70;99.90
63966;DHT22;50151;52.030;5.350;2023-07-29T07:33:46;18.60;99.90
63966;DHT22;50151;52.030;5.350;2023-07-29T07:36:13;18.70;99.90
63966;DHT22;50151;52.030;5.350;2023-07-29T07:38:39;18.80;99.90
63966;DHT22;50151;52.030;5.350;2023-07-29T07:41:06;18.80;99.90
63966;DHT22;50151;52.030;5.350;2023-07-29T07:43:33;18.80;99.90
63966;DHT22;50151;52.030;5.350;2023-07-29T07:46:01;18.80;99.90
63966;DHT22;50151;52.030;5.350;2023-07-29T07:48:28;18.90;99.90
63966;DHT22;50151;52.030;5.350;2023-07-29T07:50:55;18.90;99.90
63966;DHT22;50151;52.030;5.350;2023-07-29T07:53:21;18.90;99.90
63966;DHT22;50151;52.030;5.350;2023-07-29T07:55:48;19.00;99.90
63966;DHT22;50151;52.030;5.350;2023-07-29T07:58:15;19.00;99.90
63966;DHT22;50151;52.030;5.350;2023-07-29T08:00:41;19.00;99.90
63966;DHT22;50151;52.030;5.350;2023-07-29T08:03:08;19.10;99.90
63966;DHT22;50151;52.030;5.350;2023-07-29T08:05:35;19.10;99.90
63966;DHT22;50151;52.030;5.350;2023-07-29T08:08:02;19.30;99.90
63966;DHT22;50151;52.030;5.350;2023-07-29T08:10:29;19.40;99.90
63966;DHT22;50151;52.030;5.350;2023-07-29T08:12:55;19.60;99.90
63966;DHT22;50151;52.030;5.350;2023-07-29T08:15:22;19.60;99.90
63966;DHT22;50151;52.030;5.350;2023-07-29T08:17:49;19.70;99.90
63966;DHT22;50151;52.030;5.350;2023-07-29T08:20:16;19.70;99.90
63966;DHT22;50151;52.030;5.350;2023-07-29T08:22:42;19.80;99.90
63966;DHT22;50151;52.030;5.350;2023-07-29T08:25:09;19.70;99.90
63966;DHT22;50151;52.030;5.350;2023-07-29T08:27:36;19.70;99.90
63966;DHT22;50151;52.030;5.350;2023-07-29T08:30:02;19.70;99.90
63966;DHT22;50151;52.030;5.350;2023-07-29T08:32:29;19.90;99.90
63966;DHT22;50151;52.030;5.350;2023-07-29T08:34:56;19.90;99.90
63966;DHT22;50151;52.030;5.350;2023-07-29T08:37:24;20.00;99.90
63966;DHT22;50151;52.030;5.350;2023-07-29T08:39:51;20.00;99.90
63966;DHT22;50151;52.030;5.350;2023-07-29T08:42:21;20.10;99.90
63966;DHT22;50151;52.030;5.350;2023-07-29T08:44:50;20.10;99.90
63966;DHT22;50151;52.030;5.350;2023-07-29T08:47:18;19.90;99.90
63966;DHT22;50151;52.030;5.350;2023-07-29T08:49:46;19.90;99.90
63966;DHT22;50151;52.030;5.350;2023-07-29T08:52:14;20.00;99.90
63966;DHT22;50151;52.030;5.350;2023-07-29T08:54:41;20.00;99.90
63966;DHT22;50151;52.030;5.350;2023-07-29T08:57:08;20.20;99.90
63966;DHT22;50151;52.030;5.350;2023-07-29T08:59:35;20.50;99.90
63966;DHT22;50151;52.030;5.350;2023-07-29T09:02:02;20.50;99.90
63966;DHT22;50151;52.030;5.350;2023-07-29T09:04:29;20.50;99.90
63966;DHT22;50151;52.030;5.350;2023-07-29T09:06:56;20.50;99.90
63966;DHT22;50151;52.030;5.350;2023-07-29T09:09:24;20.60;99.90
63966;DHT22;50151;52.030;5.350;2023-07-29T09:11:51;20.60;99.90
63966;DHT22;50151;52.030;5.350;2023-07-29T09:14:18;21.00;99.90
63966;DHT22;50151;52.030;5.350;2023-07-29T09:16:46;20.90;99.90
63966;DHT22;50151;52.030;5.350;2023-07-29T09:19:12;21.00;99.90
63966;DHT22;50151;52.030;5.350;2023-07-29T09:21:40;21.00;99.90
63966;DHT22;50151;52.030;5.350;2023-07-29T09:24:07;21.10;99.90
63966;DHT22;50151;52.030;5.350;2023-07-29T09:26:35;21.30;99.90
63966;DHT22;50151;52.030;5.350;2023-07-29T09:29:03;21.30;99.90
63966;DHT22;50151;52.030;5.350;2023-07-29T09:31:29;21.50;99.90
63966;DHT22;50151;52.030;5.350;2023-07-29T09:33:58;21.70;99.90
63966;DHT22;50151;52.030;5.350;2023-07-29T09:36:26;21.40;99.90
63966;DHT22;50151;52.030;5.350;2023-07-29T09:38:56;21.40;99.90
63966;DHT22;50151;52.030;5.350;2023-07-29T09:41:24;21.50;99.90
63966;DHT22;50151;52.030;5.350;2023-07-29T09:43:56;21.50;99.90
63966;DHT22;50151;52.030;5.350;2023-07-29T09:46:25;21.50;99.90
63966;DHT22;50151;52.030;5.350;2023-07-29T09:48:54;21.40;99.90
63966;DHT22;50151;52.030;5.350;2023-07-29T09:51:24;21.50;99.90
63966;DHT22;50151;52.030;5.350;2023-07-29T09:53:51;21.50;99.90
63966;DHT22;50151;52.030;5.350;2023-07-29T09:56:25;21.70;99.90
63966;DHT22;50151;52.030;5.350;2023-07-29T09:58:53;22.00;99.90
63966;DHT22;50151;52.030;5.350;2023-07-29T10:01:21;21.70;99.90
63966;DHT22;50151;52.030;5.350;2023-07-29T10:03:48;21.80;99.90
63966;DHT22;50151;52.030;5.350;2023-07-29T10:06:17;21.80;99.90
63966;DHT22;50151;52.030;5.350;2023-07-29T10:08:45;21.70;99.90
63966;DHT22;50151;52.030;5.350;2023-07-29T10:11:12;21.70;99.90
63966;DHT22;50151;52.030;5.350;2023-07-29T10:13:39;21.70;99.90
63966;DHT22;50151;52.030;5.350;2023-07-29T10:16:06;22.00;99.90
63966;DHT22;50151;52.030;5.350;2023-07-29T10:18:33;22.00;99.90
63966;DHT22;50151;52.030;5.350;2023-07-29T10:21:01;21.70;99.90
63966;DHT22;50151;52.030;5.350;2023-07-29T10:23:41;21.50;99.90
63966;DHT22;50151;52.030;5.350;2023-07-29T10:26:10;21.80;99.90
63966;DHT22;50151;52.030;5.350;2023-07-29T10:28:41;22.00;99.90
63966;DHT22;50151;52.030;5.350;2023-07-29T10:31:09;21.90;99.90
63966;DHT22;50151;52.030;5.350;2023-07-29T10:33:37;22.10;99.90
63966;DHT22;50151;52.030;5.350;2023-07-29T10:36:05;22.20;99.90
63966;DHT22;50151;52.030;5.350;2023-07-29T10:38:32;22.20;99.90
63966;DHT22;50151;52.030;5.350;2023-07-29T10:40:59;21.80;99.90
63966;DHT22;50151;52.030;5.350;2023-07-29T10:43:33;21.70;99.90
63966;DHT22;50151;52.030;5.350;2023-07-29T10:46:17;21.60;99.90
63966;DHT22;50151;52.030;5.350;2023-07-29T10:51:34;21.20;99.90
63966;DHT22;50151;52.030;5.350;2023-07-29T10:54:02;21.30;99.90
63966;DHT22;50151;52.030;5.350;2023-07-29T10:56:32;21.20;99.90
63966;DHT22;50151;52.030;5.350;2023-07-29T10:59:31;21.00;99.90
63966;DHT22;50151;52.030;5.350;2023-07-29T11:02:00;20.90;99.90
63966;DHT22;50151;52.030;5.350;2023-07-29T11:04:29;20.90;99.90
63966;DHT22;50151;52.030;5.350;2023-07-29T11:12:44;20.70;99.90
63966;DHT22;50151;52.030;5.350;2023-07-29T11:15:32;20.60;99.90
63966;DHT22;50151;52.030;5.350;2023-07-29T11:18:01;20.60;99.90
63966;DHT22;50151;52.030;5.350;2023-07-29T11:20:31;20.50;99.90
63966;DHT22;50151;52.030;5.350;2023-07-29T11:23:01;20.60;99.90
63966;DHT22;50151;52.030;5.350;2023-07-29T11:25:29;20.70;99.90
63966;DHT22;50151;52.030;5.350;2023-07-29T11:27:58;20.70;99.90
63966;DHT22;50151;52.030;5.350;2023-07-29T11:30:25;20.50;99.90
63966;DHT22;50151;52.030;5.350;2023-07-29T11:32:56;20.30;99.90
63966;DHT22;50151;52.030;5.350;2023-07-29T11:35:24;20.10;99.90
63966;DHT22;50151;52.030;5.350;2023-07-29T11:37:54;20.00;99.90
63966;DHT22;50151;52.030;5.350;2023-07-29T11:40:24;20.20;99.90
63966;DHT22;50151;52.030;5.350;2023-07-29T11:42:52;20.10;99.90
63966;DHT22;50151;52.030;5.350;2023-07-29T11:45:21;20.20;99.90
63966;DHT22;50151;52.030;5.350;2023-07-29T11:47:51;20.20;99.90
63966;DHT22;50151;52.030;5.350;2023-07-29T11:50:17;20.30;99.90
63966;DHT22;50151;52.030;5.350;2023-07-29T11:52:45;20.20;99.90
63966;DHT22;50151;52.030;5.350;2023-07-29T11:55:15;20.40;99.90
63966;DHT22;50151;52.030;5.350;2023-07-29T11:57:42;20.60;99.90
63966;DHT22;50151;52.030;5.350;2023-07-29T12:00:10;20.40;99.90
63966;DHT22;50151;52.030;5.350;2023-07-29T12:02:41;20.40;99.90
63966;DHT22;50151;52.030;5.350;2023-07-29T12:05:09;20.30;99.90
63966;DHT22;50151;52.030;5.350;2023-07-29T12:07:38;20.30;99.90
63966;DHT22;50151;52.030;5.350;2023-07-29T12:10:06;20.40;99.90
63966;DHT22;50151;52.030;5.350;2023-07-29T12:12:33;20.50;99.90
63966;DHT22;50151;52.030;5.350;2023-07-29T12:14:59;20.50;99.90
63966;DHT22;50151;52.030;5.350;2023-07-29T12:17:27;20.90;99.90
63966;DHT22;50151;52.030;5.350;2023-07-29T12:19:55;21.40;99.90
63966;DHT22;50151;52.030;5.350;2023-07-29T12:22:22;21.50;99.90
63966;DHT22;50151;52.030;5.350;2023-07-29T12:24:51;21.00;99.90
63966;DHT22;50151;52.030;5.350;2023-07-29T12:27:21;21.00;99.90
63966;DHT22;50151;52.030;5.350;2023-07-29T12:29:51;21.30;99.90
63966;DHT22;50151;52.030;5.350;2023-07-29T12:32:18;21.30;99.90
63966;DHT22;50151;52.030;5.350;2023-07-29T12:34:45;21.50;99.90
63966;DHT22;50151;52.030;5.350;2023-07-29T12:37:12;21.30;99.90
63966;DHT22;50151;52.030;5.350;2023-07-29T12:39:41;21.40;99.90
63966;DHT22;50151;52.030;5.350;2023-07-29T12:42:09;21.20;99.90
63966;DHT22;50151;52.030;5.350;2023-07-29T12:44:37;21.20;99.90
63966;DHT22;50151;52.030;5.350;2023-07-29T12:47:05;21.20;99.90
63966;DHT22;50151;52.030;5.350;2023-07-29T12:49:32;21.20;99.90
63966;DHT22;50151;52.030;5.350;2023-07-29T12:51:59;21.30;99.90
63966;DHT22;50151;52.030;5.350;2023-07-29T12:54:26;21.50;99.90
63966;DHT22;50151;52.030;5.350;2023-07-29T12:56:53;21.60;99.90
63966;DHT22;50151;52.030;5.350;2023-07-29T12:59:20;21.60;99.90
63966;DHT22;50151;52.030;5.350;2023-07-29T13:01:47;21.90;99.90
63966;DHT22;50151;52.030;5.350;2023-07-29T13:04:14;22.20;99.90
63966;DHT22;50151;52.030;5.350;2023-07-29T13:06:40;22.90;99.90
63966;DHT22;50151;52.030;5.350;2023-07-29T13:09:07;22.70;99.90
63966;DHT22;50151;52.030;5.350;2023-07-29T13:11:34;23.10;99.90
63966;DHT22;50151;52.030;5.350;2023-07-29T13:14:01;23.00;99.90
63966;DHT22;50151;52.030;5.350;2023-07-29T13:16:28;22.90;99.90
63966;DHT22;50151;52.030;5.350;2023-07-29T13:18:55;23.10;99.90
63966;DHT22;50151;52.030;5.350;2023-07-29T13:21:23;23.30;99.90
63966;DHT22;50151;52.030;5.350;2023-07-29T13:23:50;22.60;99.90
63966;DHT22;50151;52.030;5.350;2023-07-29T13:26:17;22.30;99.90
63966;DHT22;50151;52.030;5.350;2023-07-29T13:28:44;22.30;99.90
63966;DHT22;50151;52.030;5.350;2023-07-29T13:31:11;22.40;99.90
63966;DHT22;50151;52.030;5.350;2023-07-29T13:33:38;22.60;99.90
63966;DHT22;50151;52.030;5.350;2023-07-29T13:36:05;22.00;99.90
63966;DHT22;50151;52.030;5.350;2023-07-29T13:38:32;22.50;99.90
63966;DHT22;50151;52.030;5.350;2023-07-29T13:40:58;23.40;99.90
63966;DHT22;50151;52.030;5.350;2023-07-29T13:43:25;24.20;99.90
63966;DHT22;50151;52.030;5.350;2023-07-29T13:45:52;24.40;99.90
63966;DHT22;50151;52.030;5.350;2023-07-29T13:48:19;24.80;99.90
63966;DHT22;50151;52.030;5.350;2023-07-29T13:50:46;25.00;99.90
63966;DHT22;50151;52.030;5.350;2023-07-29T13:53:13;24.90;99.90
63966;DHT22;50151;52.030;5.350;2023-07-29T13:55:39;24.40;99.90
63966;DHT22;50151;52.030;5.350;2023-07-29T13:58:06;24.00;99.90
63966;DHT22;50151;52.030;5.350;2023-07-29T14:00:33;24.40;99.90
63966;DHT22;50151;52.030;5.350;2023-07-29T14:03:00;25.20;99.90
63966;DHT22;50151;52.030;5.350;2023-07-29T14:05:27;25.60;99.90
63966;DHT22;50151;52.030;5.350;2023-07-29T14:07:53;25.10;99.90
63966;DHT22;50151;52.030;5.350;2023-07-29T14:10:20;24.80;99.90
63966;DHT22;50151;52.030;5.350;2023-07-29T14:12:46;24.80;99.90
63966;DHT22;50151;52.030;5.350;2023-07-29T14:15:13;24.90;99.90
63966;DHT22;50151;52.030;5.350;2023-07-29T14:17:40;25.70;99.90
63966;DHT22;50151;52.030;5.350;2023-07-29T14:20:07;25.30;99.90
63966;DHT22;50151;52.030;5.350;2023-07-29T14:22:35;25.00;99.90
63966;DHT22;50151;52.030;5.350;2023-07-29T14:25:02;25.00;99.90
63966;DHT22;50151;52.030;5.350;2023-07-29T14:27:29;24.50;99.90
63966;DHT22;50151;52.030;5.350;2023-07-29T14:29:56;24.90;99.90
63966;DHT22;50151;52.030;5.350;2023-07-29T14:32:23;26.00;99.90
63966;DHT22;50151;52.030;5.350;2023-07-29T14:34:51;25.40;99.90
63966;DHT22;50151;52.030;5.350;2023-07-29T14:37:17;25.30;99.90
63966;DHT22;50151;52.030;5.350;2023-07-29T14:39:44;25.20;99.90
63966;DHT22;50151;52.030;5.350;2023-07-29T14:42:11;25.30;99.90
63966;DHT22;50151;52.030;5.350;2023-07-29T14:44:38;25.70;99.90
63966;DHT22;50151;52.030;5.350;2023-07-29T14:47:04;25.90;99.90
63966;DHT22;50151;52.030;5.350;2023-07-29T14:49:31;25.60;99.90
63966;DHT22;50151;52.030;5.350;2023-07-29T14:51:58;24.80;99.90
63966;DHT22;50151;52.030;5.350;2023-07-29T14:54:25;24.70;99.90
63966;DHT22;50151;52.030;5.350;2023-07-29T14:56:51;24.60;99.90
63966;DHT22;50151;52.030;5.350;2023-07-29T14:59:18;24.40;99.90
63966;DHT22;50151;52.030;5.350;2023-07-29T15:01:45;24.00;99.90
63966;DHT22;50151;52.030;5.350;2023-07-29T15:04:12;24.20;99.90
63966;DHT22;50151;52.030;5.350;2023-07-29T15:06:38;24.60;99.90
63966;DHT22;50151;52.030;5.350;2023-07-29T15:09:05;24.70;99.90
63966;DHT22;50151;52.030;5.350;2023-07-29T15:11:33;25.00;99.90
63966;DHT22;50151;52.030;5.350;2023-07-29T15:14:00;25.10;99.90
63966;DHT22;50151;52.030;5.350;2023-07-29T15:16:27;24.90;99.90
63966;DHT22;50151;52.030;5.350;2023-07-29T15:18:54;24.60;99.90
63966;DHT22;50151;52.030;5.350;2023-07-29T15:21:21;24.60;99.90
63966;DHT22;50151;52.030;5.350;2023-07-29T15:23:47;23.90;99.90
63966;DHT22;50151;52.030;5.350;2023-07-29T15:26:14;24.00;99.90
63966;DHT22;50151;52.030;5.350;2023-07-29T15:28:41;23.70;99.90
63966;DHT22;50151;52.030;5.350;2023-07-29T15:31:08;23.40;99.90
63966;DHT22;50151;52.030;5.350;2023-07-29T15:33:34;23.30;99.90
63966;DHT22;50151;52.030;5.350;2023-07-29T15:36:01;23.40;99.90
63966;DHT22;50151;52.030;5.350;2023-07-29T15:38:28;22.60;99.90
63966;DHT22;50151;52.030;5.350;2023-07-29T15:40:55;22.60;99.90